sensor_id;sensor_type;location;lat;lon;timestamp;pressure;altitude;pressure_sealevel;temperature
25985;BMP280;66753;53.848;10.658;2023-02-28T00:02:57;103019.19;;;5.03
25985;BMP280;66753;53.848;10.658;2023-02-28T00:07:58;103023.09;;;5.01
25985;BMP280;66753;53.848;10.658;2023-02-28T00:13:05;103019.91;;;4.99
25985;BMP280;66753;53.848;10.658;2023-02-28T00:18:05;103020.38;;;4.96
25985;BMP280;66753;53.848;10.658;2023-02-28T00:23:06;103022.78;;;4.97
25985;BMP280;66753;53.848;10.658;2023-02-28T00:28:06;103023.56;;;4.98
25985;BMP280;66753;53.848;10.658;2023-02-28T00:33:07;103019.09;;;4.98
25985;BMP280;66753;53.848;10.658;2023-02-28T00:38:07;103022.53;;;4.99
25985;BMP280;66753;53.848;10.658;2023-02-28T00:43:08;103020.69;;;4.99
25985;BMP280;66753;53.848;10.658;2023-02-28T00:48:08;103028.25;;;4.96
25985;BMP280;66753;53.848;10.658;2023-02-28T00:53:09;103015.31;;;4.94
25985;BMP280;66753;53.848;10.658;2023-02-28T00:58:09;103025.53;;;4.91
25985;BMP280;66753;53.848;10.658;2023-02-28T01:03:09;103026.53;;;4.90
25985;BMP280;66753;53.848;10.658;2023-02-28T01:08:11;103016.59;;;4.92
25985;BMP280;66753;53.848;10.658;2023-02-28T01:13:12;103018.13;;;4.88
25985;BMP280;66753;53.848;10.658;2023-02-28T01:18:13;103012.53;;;4.84
25985;BMP280;66753;53.848;10.658;2023-02-28T01:23:13;103023.28;;;4.83
25985;BMP280;66753;53.848;10.658;2023-02-28T01:28:14;103017.94;;;4.78
25985;BMP280;66753;53.848;10.658;2023-02-28T01:33:14;103022.59;;;4.76
25985;BMP280;66753;53.848;10.658;2023-02-28T01:38:15;103026.50;;;4.73
25985;BMP280;66753;53.848;10.658;2023-02-28T01:43:21;103021.94;;;4.69
25985;BMP280;66753;53.848;10.658;2023-02-28T01:48:27;103020.25;;;4.63
25985;BMP280;66753;53.848;10.658;2023-02-28T01:53:42;103022.41;;;4.66
25985;BMP280;66753;53.848;10.658;2023-02-28T01:58:44;103023.44;;;4.65
25985;BMP280;66753;53.848;10.658;2023-02-28T02:03:44;103020.25;;;4.63
25985;BMP280;66753;53.848;10.658;2023-02-28T02:08:45;103018.91;;;4.60
25985;BMP280;66753;53.848;10.658;2023-02-28T02:14:00;103010.81;;;4.50
25985;BMP280;66753;53.848;10.658;2023-02-28T02:35:55;102987.34;;;4.32
25985;BMP280;66753;53.848;10.658;2023-02-28T02:41:14;102993.63;;;4.20
25985;BMP280;66753;53.848;10.658;2023-02-28T02:46:27;102996.63;;;4.12
25985;BMP280;66753;53.848;10.658;2023-02-28T02:51:32;102994.00;;;4.00
25985;BMP280;66753;53.848;10.658;2023-02-28T02:56:33;102988.19;;;3.87
25985;BMP280;66753;53.848;10.658;2023-02-28T03:01:36;102980.97;;;3.71
25985;BMP280;66753;53.848;10.658;2023-02-28T03:06:37;102979.03;;;3.54
25985;BMP280;66753;53.848;10.658;2023-02-28T03:11:38;102984.59;;;3.35
25985;BMP280;66753;53.848;10.658;2023-02-28T03:37:44;102980.75;;;2.78
25985;BMP280;66753;53.848;10.658;2023-02-28T03:42:48;102979.28;;;2.64
25985;BMP280;66753;53.848;10.658;2023-02-28T03:47:56;102974.09;;;2.46
25985;BMP280;66753;53.848;10.658;2023-02-28T03:58:20;102978.38;;;2.23
25985;BMP280;66753;53.848;10.658;2023-02-28T04:03:22;102984.31;;;2.12
25985;BMP280;66753;53.848;10.658;2023-02-28T04:08:23;102971.16;;;2.00
25985;BMP280;66753;53.848;10.658;2023-02-28T04:13:23;102972.41;;;1.91
25985;BMP280;66753;53.848;10.658;2023-02-28T04:18:24;102964.72;;;1.78
25985;BMP280;66753;53.848;10.658;2023-02-28T04:23:24;102964.41;;;1.68
25985;BMP280;66753;53.848;10.658;2023-02-28T04:28:25;102965.69;;;1.59
25985;BMP280;66753;53.848;10.658;2023-02-28T04:33:26;102968.94;;;1.48
25985;BMP280;66753;53.848;10.658;2023-02-28T04:38:26;102971.81;;;1.40
25985;BMP280;66753;53.848;10.658;2023-02-28T04:43:27;102977.34;;;1.32
25985;BMP280;66753;53.848;10.658;2023-02-28T04:48:30;102980.97;;;1.24
25985;BMP280;66753;53.848;10.658;2023-02-28T04:53:31;102975.63;;;1.13
25985;BMP280;66753;53.848;10.658;2023-02-28T04:58:32;102962.41;;;1.08
25985;BMP280;66753;53.848;10.658;2023-02-28T05:03:32;102967.25;;;0.98
25985;BMP280;66753;53.848;10.658;2023-02-28T05:08:33;102962.28;;;0.90
25985;BMP280;66753;53.848;10.658;2023-02-28T05:13:34;102961.91;;;0.80
25985;BMP280;66753;53.848;10.658;2023-02-28T05:18:36;102958.75;;;0.71
25985;BMP280;66753;53.848;10.658;2023-02-28T05:23:37;102975.19;;;0.65
25985;BMP280;66753;53.848;10.658;2023-02-28T05:28:37;102964.81;;;0.59
25985;BMP280;66753;53.848;10.658;2023-02-28T05:33:37;102966.41;;;0.53
25985;BMP280;66753;53.848;10.658;2023-02-28T05:38:38;102961.00;;;0.48
25985;BMP280;66753;53.848;10.658;2023-02-28T05:43:38;102977.06;;;0.39
25985;BMP280;66753;53.848;10.658;2023-02-28T05:48:42;102972.69;;;0.33
25985;BMP280;66753;53.848;10.658;2023-02-28T05:53:43;102983.16;;;0.26
25985;BMP280;66753;53.848;10.658;2023-02-28T05:58:44;102985.56;;;0.21
25985;BMP280;66753;53.848;10.658;2023-02-28T06:03:44;102983.16;;;0.20
25985;BMP280;66753;53.848;10.658;2023-02-28T06:08:44;102976.75;;;0.16
25985;BMP280;66753;53.848;10.658;2023-02-28T06:13:46;102991.38;;;0.10
25985;BMP280;66753;53.848;10.658;2023-02-28T06:18:46;102985.38;;;0.10
25985;BMP280;66753;53.848;10.658;2023-02-28T06:23:47;102989.78;;;0.09
25985;BMP280;66753;53.848;10.658;2023-02-28T06:28:48;102995.63;;;0.11
25985;BMP280;66753;53.848;10.658;2023-02-28T06:33:49;103008.44;;;0.13
25985;BMP280;66753;53.848;10.658;2023-02-28T06:38:49;103010.03;;;0.14
25985;BMP280;66753;53.848;10.658;2023-02-28T06:43:54;103007.22;;;0.15
25985;BMP280;66753;53.848;10.658;2023-02-28T06:48:55;103015.66;;;0.17
25985;BMP280;66753;53.848;10.658;2023-02-28T06:53:55;103023.91;;;0.21
25985;BMP280;66753;53.848;10.658;2023-02-28T06:58:56;103021.41;;;0.32
25985;BMP280;66753;53.848;10.658;2023-02-28T07:03:57;103029.66;;;0.42
25985;BMP280;66753;53.848;10.658;2023-02-28T07:08:58;103026.41;;;0.53
25985;BMP280;66753;53.848;10.658;2023-02-28T07:13:59;103033.22;;;0.67
25985;BMP280;66753;53.848;10.658;2023-02-28T07:18:59;103043.44;;;0.82
25985;BMP280;66753;53.848;10.658;2023-02-28T07:23:59;103044.00;;;0.97
25985;BMP280;66753;53.848;10.658;2023-02-28T07:29:00;103061.22;;;1.11
25985;BMP280;66753;53.848;10.658;2023-02-28T07:34:00;103071.78;;;1.29
25985;BMP280;66753;53.848;10.658;2023-02-28T07:39:01;103077.53;;;1.44
25985;BMP280;66753;53.848;10.658;2023-02-28T07:44:01;103088.53;;;1.59
25985;BMP280;66753;53.848;10.658;2023-02-28T07:49:04;103098.47;;;1.75
25985;BMP280;66753;53.848;10.658;2023-02-28T07:54:05;103088.09;;;1.93
25985;BMP280;66753;53.848;10.658;2023-02-28T07:59:05;103086.34;;;2.12
25985;BMP280;66753;53.848;10.658;2023-02-28T08:04:05;103100.13;;;2.25
25985;BMP280;66753;53.848;10.658;2023-02-28T08:09:06;103102.63;;;2.38
25985;BMP280;66753;53.848;10.658;2023-02-28T08:14:06;103110.09;;;2.59
25985;BMP280;66753;53.848;10.658;2023-02-28T08:19:07;103109.06;;;2.78
25985;BMP280;66753;53.848;10.658;2023-02-28T08:24:07;103111.63;;;3.03
25985;BMP280;66753;53.848;10.658;2023-02-28T08:29:08;103104.31;;;3.23
25985;BMP280;66753;53.848;10.658;2023-02-28T08:34:10;103112.28;;;3.46
25985;BMP280;66753;53.848;10.658;2023-02-28T08:39:12;103125.44;;;3.69
25985;BMP280;66753;53.848;10.658;2023-02-28T08:44:12;103126.78;;;3.90
25985;BMP280;66753;53.848;10.658;2023-02-28T08:49:13;103126.72;;;4.08
25985;BMP280;66753;53.848;10.658;2023-02-28T08:54:13;103137.78;;;4.33
25985;BMP280;66753;53.848;10.658;2023-02-28T08:59:16;103140.16;;;4.69
25985;BMP280;66753;53.848;10.658;2023-02-28T09:04:16;103149.94;;;4.96
25985;BMP280;66753;53.848;10.658;2023-02-28T09:09:17;103158.88;;;5.23
25985;BMP280;66753;53.848;10.658;2023-02-28T09:14:17;103163.84;;;5.48
25985;BMP280;66753;53.848;10.658;2023-02-28T09:19:18;103167.00;;;5.78
25985;BMP280;66753;53.848;10.658;2023-02-28T09:24:18;103175.78;;;6.00
25985;BMP280;66753;53.848;10.658;2023-02-28T09:29:20;103173.53;;;6.25
25985;BMP280;66753;53.848;10.658;2023-02-28T09:34:20;103175.81;;;6.55
25985;BMP280;66753;53.848;10.658;2023-02-28T09:39:22;103179.56;;;6.80
25985;BMP280;66753;53.848;10.658;2023-02-28T09:44:36;103176.13;;;7.01
25985;BMP280;66753;53.848;10.658;2023-02-28T09:49:41;103181.91;;;7.20
25985;BMP280;66753;53.848;10.658;2023-02-28T09:54:43;103183.63;;;7.36
25985;BMP280;66753;53.848;10.658;2023-02-28T10:05:14;103177.97;;;7.80
25985;BMP280;66753;53.848;10.658;2023-02-28T10:10:22;103186.34;;;7.99
25985;BMP280;66753;53.848;10.658;2023-02-28T10:15:27;103189.31;;;8.12
25985;BMP280;66753;53.848;10.658;2023-02-28T10:20:34;103194.47;;;8.29
25985;BMP280;66753;53.848;10.658;2023-02-28T10:25:37;103196.22;;;8.65
25985;BMP280;66753;53.848;10.658;2023-02-28T10:30:41;103184.63;;;8.71
25985;BMP280;66753;53.848;10.658;2023-02-28T10:35:42;103172.16;;;8.66
25985;BMP280;66753;53.848;10.658;2023-02-28T10:40:43;103168.00;;;8.80
25985;BMP280;66753;53.848;10.658;2023-02-28T10:45:54;103175.47;;;8.99
25985;BMP280;66753;53.848;10.658;2023-02-28T10:50:56;103177.09;;;9.20
25985;BMP280;66753;53.848;10.658;2023-02-28T11:01:01;103177.41;;;9.53
25985;BMP280;66753;53.848;10.658;2023-02-28T11:06:07;103165.72;;;9.69
25985;BMP280;66753;53.848;10.658;2023-02-28T11:11:08;103154.34;;;9.74
25985;BMP280;66753;53.848;10.658;2023-02-28T11:16:11;103147.44;;;9.88
25985;BMP280;66753;53.848;10.658;2023-02-28T11:21:18;103151.94;;;9.97
25985;BMP280;66753;53.848;10.658;2023-02-28T11:26:41;103137.34;;;9.95
25985;BMP280;66753;53.848;10.658;2023-02-28T11:31:42;103133.66;;;9.91
25985;BMP280;66753;53.848;10.658;2023-02-28T11:36:43;103120.13;;;9.92
25985;BMP280;66753;53.848;10.658;2023-02-28T11:41:57;103128.31;;;10.06
25985;BMP280;66753;53.848;10.658;2023-02-28T11:52:54;103130.66;;;10.76
25985;BMP280;66753;53.848;10.658;2023-02-28T11:58:24;103118.41;;;10.80
25985;BMP280;66753;53.848;10.658;2023-02-28T12:29:47;103082.25;;;11.51
25985;BMP280;66753;53.848;10.658;2023-02-28T12:34:52;103071.50;;;11.84
25985;BMP280;66753;53.848;10.658;2023-02-28T12:40:00;103051.44;;;11.73
25985;BMP280;66753;53.848;10.658;2023-02-28T12:45:11;103035.88;;;11.62
25985;BMP280;66753;53.848;10.658;2023-02-28T12:50:14;103026.72;;;11.73
25985;BMP280;66753;53.848;10.658;2023-02-28T12:55:21;103040.63;;;11.88
25985;BMP280;66753;53.848;10.658;2023-02-28T13:00:30;103019.72;;;11.82
25985;BMP280;66753;53.848;10.658;2023-02-28T13:11:25;102987.44;;;11.70
25985;BMP280;66753;53.848;10.658;2023-02-28T13:16:26;102989.06;;;11.66
25985;BMP280;66753;53.848;10.658;2023-02-28T13:21:28;102988.63;;;11.82
25985;BMP280;66753;53.848;10.658;2023-02-28T13:58:24;102990.13;;;12.07
25985;BMP280;66753;53.848;10.658;2023-02-28T14:08:26;102983.50;;;12.04
25985;BMP280;66753;53.848;10.658;2023-02-28T14:13:41;102982.38;;;12.10
25985;BMP280;66753;53.848;10.658;2023-02-28T14:19:00;102969.16;;;12.24
25985;BMP280;66753;53.848;10.658;2023-02-28T14:29:47;102991.41;;;12.60
25985;BMP280;66753;53.848;10.658;2023-02-28T14:40:11;102995.94;;;12.78
25985;BMP280;66753;53.848;10.658;2023-02-28T14:45:22;102996.06;;;12.68
25985;BMP280;66753;53.848;10.658;2023-02-28T14:50:29;102987.78;;;12.56
25985;BMP280;66753;53.848;10.658;2023-02-28T14:55:32;102989.34;;;12.57
25985;BMP280;66753;53.848;10.658;2023-02-28T15:00:36;102986.75;;;12.52
25985;BMP280;66753;53.848;10.658;2023-02-28T15:05:37;102977.22;;;12.51
25985;BMP280;66753;53.848;10.658;2023-02-28T15:10:39;102976.19;;;12.47
25985;BMP280;66753;53.848;10.658;2023-02-28T15:20:43;102960.34;;;12.42
25985;BMP280;66753;53.848;10.658;2023-02-28T15:25:44;102955.75;;;12.29
25985;BMP280;66753;53.848;10.658;2023-02-28T15:30:54;102946.84;;;12.20
25985;BMP280;66753;53.848;10.658;2023-02-28T15:36:12;102940.59;;;12.11
25985;BMP280;66753;53.848;10.658;2023-02-28T15:41:30;102937.09;;;11.97
25985;BMP280;66753;53.848;10.658;2023-02-28T15:46:32;102943.81;;;11.94
25985;BMP280;66753;53.848;10.658;2023-02-28T15:51:36;102935.09;;;11.89
25985;BMP280;66753;53.848;10.658;2023-02-28T15:56:49;102933.00;;;11.86
25985;BMP280;66753;53.848;10.658;2023-02-28T16:07:12;102941.34;;;11.61
25985;BMP280;66753;53.848;10.658;2023-02-28T16:12:13;102935.31;;;11.32
25985;BMP280;66753;53.848;10.658;2023-02-28T16:17:34;102939.84;;;11.08
25985;BMP280;66753;53.848;10.658;2023-02-28T16:22:35;102929.41;;;10.88
25985;BMP280;66753;53.848;10.658;2023-02-28T16:27:37;102922.78;;;10.57
25985;BMP280;66753;53.848;10.658;2023-02-28T16:32:37;102915.63;;;10.24
25985;BMP280;66753;53.848;10.658;2023-02-28T16:37:38;102928.53;;;9.97
25985;BMP280;66753;53.848;10.658;2023-02-28T16:42:40;102922.28;;;9.73
25985;BMP280;66753;53.848;10.658;2023-02-28T16:47:40;102919.22;;;9.51
25985;BMP280;66753;53.848;10.658;2023-02-28T16:52:41;102920.38;;;9.25
25985;BMP280;66753;53.848;10.658;2023-02-28T16:57:43;102921.75;;;9.02
25985;BMP280;66753;53.848;10.658;2023-02-28T17:02:43;102911.75;;;8.69
25985;BMP280;66753;53.848;10.658;2023-02-28T17:07:45;102906.19;;;8.40
25985;BMP280;66753;53.848;10.658;2023-02-28T17:12:46;102917.72;;;8.14
25985;BMP280;66753;53.848;10.658;2023-02-28T17:17:47;102915.53;;;7.91
25985;BMP280;66753;53.848;10.658;2023-02-28T17:22:53;102914.13;;;7.64
25985;BMP280;66753;53.848;10.658;2023-02-28T17:27:53;102906.09;;;7.39
25985;BMP280;66753;53.848;10.658;2023-02-28T17:32:55;102912.28;;;7.18
25985;BMP280;66753;53.848;10.658;2023-02-28T17:37:56;102913.47;;;7.00
25985;BMP280;66753;53.848;10.658;2023-02-28T17:42:56;102909.66;;;6.81
25985;BMP280;66753;53.848;10.658;2023-02-28T17:47:57;102903.69;;;6.64
25985;BMP280;66753;53.848;10.658;2023-02-28T17:52:57;102894.03;;;6.43
25985;BMP280;66753;53.848;10.658;2023-02-28T17:57:58;102900.13;;;6.22
25985;BMP280;66753;53.848;10.658;2023-02-28T18:02:59;102900.69;;;6.03
25985;BMP280;66753;53.848;10.658;2023-02-28T18:08:00;102901.78;;;5.80
25985;BMP280;66753;53.848;10.658;2023-02-28T18:13:01;102914.47;;;5.66
25985;BMP280;66753;53.848;10.658;2023-02-28T18:18:03;102910.28;;;5.49
25985;BMP280;66753;53.848;10.658;2023-02-28T18:23:06;102908.69;;;5.31
25985;BMP280;66753;53.848;10.658;2023-02-28T18:28:07;102897.06;;;5.11
25985;BMP280;66753;53.848;10.658;2023-02-28T18:33:07;102901.78;;;4.92
25985;BMP280;66753;53.848;10.658;2023-02-28T18:38:16;102904.84;;;4.73
25985;BMP280;66753;53.848;10.658;2023-02-28T18:43:19;102904.91;;;4.61
25985;BMP280;66753;53.848;10.658;2023-02-28T18:48:19;102902.03;;;4.46
25985;BMP280;66753;53.848;10.658;2023-02-28T18:53:22;102900.97;;;4.31
25985;BMP280;66753;53.848;10.658;2023-02-28T18:58:23;102894.34;;;4.17
25985;BMP280;66753;53.848;10.658;2023-02-28T19:03:23;102892.00;;;4.04
25985;BMP280;66753;53.848;10.658;2023-02-28T19:08:24;102891.94;;;3.87
25985;BMP280;66753;53.848;10.658;2023-02-28T19:13:25;102906.53;;;3.72
25985;BMP280;66753;53.848;10.658;2023-02-28T19:18:25;102903.69;;;3.62
25985;BMP280;66753;53.848;10.658;2023-02-28T19:23:27;102909.38;;;3.47
25985;BMP280;66753;53.848;10.658;2023-02-28T19:28:28;102901.50;;;3.35
25985;BMP280;66753;53.848;10.658;2023-02-28T19:33:30;102900.69;;;3.23
25985;BMP280;66753;53.848;10.658;2023-02-28T19:38:30;102897.28;;;3.11
25985;BMP280;66753;53.848;10.658;2023-02-28T19:43:30;102905.31;;;2.98
25985;BMP280;66753;53.848;10.658;2023-02-28T19:48:31;102902.47;;;2.88
25985;BMP280;66753;53.848;10.658;2023-02-28T19:53:34;102897.97;;;2.77
25985;BMP280;66753;53.848;10.658;2023-02-28T19:58:35;102897.25;;;2.70
25985;BMP280;66753;53.848;10.658;2023-02-28T20:03:35;102891.78;;;2.60
25985;BMP280;66753;53.848;10.658;2023-02-28T20:08:36;102899.94;;;2.52
25985;BMP280;66753;53.848;10.658;2023-02-28T20:13:37;102896.81;;;2.44
25985;BMP280;66753;53.848;10.658;2023-02-28T20:18:38;102888.47;;;2.35
25985;BMP280;66753;53.848;10.658;2023-02-28T20:23:40;102885.56;;;2.25
25985;BMP280;66753;53.848;10.658;2023-02-28T20:28:41;102884.06;;;2.18
25985;BMP280;66753;53.848;10.658;2023-02-28T20:33:42;102883.09;;;2.12
25985;BMP280;66753;53.848;10.658;2023-02-28T20:38:43;102887.03;;;2.03
25985;BMP280;66753;53.848;10.658;2023-02-28T20:43:43;102885.91;;;1.93
25985;BMP280;66753;53.848;10.658;2023-02-28T20:48:44;102888.03;;;1.84
25985;BMP280;66753;53.848;10.658;2023-02-28T20:53:45;102889.91;;;1.77
25985;BMP280;66753;53.848;10.658;2023-02-28T20:58:47;102885.31;;;1.73
25985;BMP280;66753;53.848;10.658;2023-02-28T21:03:50;102877.97;;;1.63
25985;BMP280;66753;53.848;10.658;2023-02-28T21:08:51;102888.84;;;1.60
25985;BMP280;66753;53.848;10.658;2023-02-28T21:13:51;102883.53;;;1.48
25985;BMP280;66753;53.848;10.658;2023-02-28T21:18:54;102883.56;;;1.42
25985;BMP280;66753;53.848;10.658;2023-02-28T21:23:55;102880.78;;;1.37
25985;BMP280;66753;53.848;10.658;2023-02-28T21:28:57;102884.84;;;1.33
25985;BMP280;66753;53.848;10.658;2023-02-28T21:33:59;102884.72;;;1.28
25985;BMP280;66753;53.848;10.658;2023-02-28T21:39:03;102879.75;;;1.20
25985;BMP280;66753;53.848;10.658;2023-02-28T21:44:04;102894.06;;;1.11
25985;BMP280;66753;53.848;10.658;2023-02-28T21:49:05;102898.91;;;1.07
25985;BMP280;66753;53.848;10.658;2023-02-28T21:54:05;102888.50;;;1.01
25985;BMP280;66753;53.848;10.658;2023-02-28T21:59:06;102895.75;;;0.99
25985;BMP280;66753;53.848;10.658;2023-02-28T22:04:11;102900.59;;;0.95
25985;BMP280;66753;53.848;10.658;2023-02-28T22:09:20;102911.06;;;0.89
25985;BMP280;66753;53.848;10.658;2023-02-28T22:14:21;102904.44;;;0.86
25985;BMP280;66753;53.848;10.658;2023-02-28T22:19:22;102903.69;;;0.79
25985;BMP280;66753;53.848;10.658;2023-02-28T22:24:22;102901.84;;;0.80
25985;BMP280;66753;53.848;10.658;2023-02-28T22:29:24;102902.06;;;0.78
25985;BMP280;66753;53.848;10.658;2023-02-28T22:34:24;102900.28;;;0.72
25985;BMP280;66753;53.848;10.658;2023-02-28T22:39:24;102901.53;;;0.70
25985;BMP280;66753;53.848;10.658;2023-02-28T22:44:25;102917.59;;;0.67
25985;BMP280;66753;53.848;10.658;2023-02-28T22:49:25;102903.56;;;0.61
25985;BMP280;66753;53.848;10.658;2023-02-28T22:54:26;102897.34;;;0.56
25985;BMP280;66753;53.848;10.658;2023-02-28T22:59:26;102894.78;;;0.49
25985;BMP280;66753;53.848;10.658;2023-02-28T23:04:27;102886.16;;;0.49
25985;BMP280;66753;53.848;10.658;2023-02-28T23:09:27;102890.38;;;0.43
25985;BMP280;66753;53.848;10.658;2023-02-28T23:14:28;102880.34;;;0.40
25985;BMP280;66753;53.848;10.658;2023-02-28T23:19:29;102886.78;;;0.38
25985;BMP280;66753;53.848;10.658;2023-02-28T23:24:32;102882.00;;;0.35
25985;BMP280;66753;53.848;10.658;2023-02-28T23:29:33;102893.00;;;0.37
25985;BMP280;66753;53.848;10.658;2023-02-28T23:34:34;102902.03;;;0.41
25985;BMP280;66753;53.848;10.658;2023-02-28T23:39:34;102908.25;;;0.40
25985;BMP280;66753;53.848;10.658;2023-02-28T23:44:35;102898.03;;;0.38
25985;BMP280;66753;53.848;10.658;2023-02-28T23:49:35;102894.63;;;0.38
25985;BMP280;66753;53.848;10.658;2023-02-28T23:54:35;102883.41;;;0.31
25985;BMP280;66753;53.848;10.658;2023-02-28T23:59:36;102897.09;;;0.26
